sensor_id;sensor_type;location;lat;lon;timestamp;pressure;altitude;pressure_sealevel;temperature;humidity
8890;BME280;4481;43.406;24.454;2023-02-26T00:00:39;76256.97;;;-144.09;97.26
8890;BME280;4481;43.406;24.454;2023-02-26T00:03:05;76244.44;;;-144.09;96.68
8890;BME280;4481;43.406;24.454;2023-02-26T00:05:32;76256.97;;;-144.09;96.97
8890;BME280;4481;43.406;24.454;2023-02-26T00:07:58;76265.31;;;-144.09;97.71
8890;BME280;4481;43.406;24.454;2023-02-26T00:10:25;76261.13;;;-144.09;97.77
8890;BME280;4481;43.406;24.454;2023-02-26T00:12:51;76286.22;;;-144.09;98.45
8890;BME280;4481;43.406;24.454;2023-02-26T00:15:18;76286.22;;;-144.09;99.09
8890;BME280;4481;43.406;24.454;2023-02-26T00:17:48;76305.03;;;-144.09;99.58
8890;BME280;4481;43.406;24.454;2023-02-26T00:20:17;76309.19;;;-144.09;100.00
8890;BME280;4481;43.406;24.454;2023-02-26T00:22:45;76321.72;;;-144.09;100.00
8890;BME280;4481;43.406;24.454;2023-02-26T00:25:11;76307.09;;;-144.09;100.00
8890;BME280;4481;43.406;24.454;2023-02-26T00:27:38;76288.31;;;-144.09;99.71
8890;BME280;4481;43.406;24.454;2023-02-26T00:30:07;76288.31;;;-144.09;99.94
8890;BME280;4481;43.406;24.454;2023-02-26T00:32:34;76269.50;;;-144.09;99.65
8890;BME280;4481;43.406;24.454;2023-02-26T00:35:01;76240.25;;;-144.09;98.92
8890;BME280;4481;43.406;24.454;2023-02-26T00:37:45;76261.13;;;-144.09;99.14
8890;BME280;4481;43.406;24.454;2023-02-26T00:40:21;76298.75;;;-144.09;100.00
8890;BME280;4481;43.406;24.454;2023-02-26T00:42:49;76288.31;;;-144.09;100.00
8890;BME280;4481;43.406;24.454;2023-02-26T00:45:16;76319.66;;;-144.09;100.00
8890;BME280;4481;43.406;24.454;2023-02-26T00:47:48;76300.84;;;-144.09;100.00
8890;BME280;4481;43.406;24.454;2023-02-26T00:50:17;76263.22;;;-144.09;100.00
8890;BME280;4481;43.406;24.454;2023-02-26T00:52:51;76246.50;;;-144.09;99.89
8890;BME280;4481;43.406;24.454;2023-02-26T00:55:18;76236.06;;;-144.09;99.60
8890;BME280;4481;43.406;24.454;2023-02-26T00:57:44;76215.19;;;-144.09;98.60
8890;BME280;4481;43.406;24.454;2023-02-26T01:00:12;76204.72;;;-144.09;98.39
8890;BME280;4481;43.406;24.454;2023-02-26T01:02:39;76188.00;;;-144.09;97.66
8890;BME280;4481;43.406;24.454;2023-02-26T01:05:06;76215.19;;;-144.09;98.50
8890;BME280;4481;43.406;24.454;2023-02-26T01:07:39;76200.56;;;-144.09;98.14
8890;BME280;4481;43.406;24.454;2023-02-26T01:10:08;76179.66;;;-144.09;97.07
8890;BME280;4481;43.406;24.454;2023-02-26T01:12:35;76177.56;;;-144.09;96.34
8890;BME280;4481;43.406;24.454;2023-02-26T01:15:03;76181.75;;;-144.09;96.59
8890;BME280;4481;43.406;24.454;2023-02-26T01:17:32;76177.56;;;-144.09;96.12
8890;BME280;4481;43.406;24.454;2023-02-26T01:20:03;76179.66;;;-144.09;96.24
8890;BME280;4481;43.406;24.454;2023-02-26T01:22:34;76185.94;;;-144.09;96.68
8890;BME280;4481;43.406;24.454;2023-02-26T01:25:05;76179.66;;;-144.09;96.61
8890;BME280;4481;43.406;24.454;2023-02-26T01:27:33;76173.38;;;-144.09;96.62
8890;BME280;4481;43.406;24.454;2023-02-26T01:30:00;76177.56;;;-144.09;96.60
8890;BME280;4481;43.406;24.454;2023-02-26T01:32:34;76158.75;;;-144.09;96.03
8890;BME280;4481;43.406;24.454;2023-02-26T01:35:06;76142.03;;;-144.09;95.14
8890;BME280;4481;43.406;24.454;2023-02-26T01:37:43;76146.22;;;-144.09;95.14
8890;BME280;4481;43.406;24.454;2023-02-26T01:43:23;76131.59;;;-144.09;94.79
8890;BME280;4481;43.406;24.454;2023-02-26T01:45:58;76158.75;;;-144.09;96.07
8890;BME280;4481;43.406;24.454;2023-02-26T01:48:35;76173.38;;;-144.09;96.68
8890;BME280;4481;43.406;24.454;2023-02-26T01:51:02;76173.38;;;-144.09;96.76
8890;BME280;4481;43.406;24.454;2023-02-26T01:53:28;76146.22;;;-144.09;95.60
8890;BME280;4481;43.406;24.454;2023-02-26T01:55:56;76156.69;;;-144.09;96.00
8890;BME280;4481;43.406;24.454;2023-02-26T01:58:26;76183.84;;;-144.09;97.39
8890;BME280;4481;43.406;24.454;2023-02-26T02:00:53;76200.56;;;-144.09;98.26
8890;BME280;4481;43.406;24.454;2023-02-26T02:03:20;76196.38;;;-144.09;98.18
8890;BME280;4481;43.406;24.454;2023-02-26T02:05:51;76177.56;;;-144.09;97.33
8890;BME280;4481;43.406;24.454;2023-02-26T02:08:18;76152.50;;;-144.09;95.94
8890;BME280;4481;43.406;24.454;2023-02-26T02:10:46;76156.69;;;-144.09;96.10
8890;BME280;4481;43.406;24.454;2023-02-26T02:13:21;76135.78;;;-144.09;94.29
8890;BME280;4481;43.406;24.454;2023-02-26T02:15:58;76125.34;;;-144.09;93.48
8890;BME280;4481;43.406;24.454;2023-02-26T02:18:34;76114.88;;;-144.09;91.60
8890;BME280;4481;43.406;24.454;2023-02-26T02:21:27;76091.91;;;-144.09;89.63
8890;BME280;4481;43.406;24.454;2023-02-26T02:23:56;76083.53;;;-144.09;87.63
8890;BME280;4481;43.406;24.454;2023-02-26T02:26:43;76075.19;;;-144.09;86.44
8890;BME280;4481;43.406;24.454;2023-02-26T02:29:46;76060.56;;;-144.09;84.89
8890;BME280;4481;43.406;24.454;2023-02-26T02:32:20;76056.38;;;-144.09;82.33
8890;BME280;4481;43.406;24.454;2023-02-26T02:34:50;76033.41;;;-144.09;82.21
8890;BME280;4481;43.406;24.454;2023-02-26T02:37:20;76018.78;;;-144.09;81.25
8890;BME280;4481;43.406;24.454;2023-02-26T02:39:51;76012.50;;;-144.09;80.75
8890;BME280;4481;43.406;24.454;2023-02-26T02:42:23;76006.25;;;-144.09;79.47
8890;BME280;4481;43.406;24.454;2023-02-26T02:44:56;75993.72;;;-144.09;78.39
8890;BME280;4481;43.406;24.454;2023-02-26T02:47:26;75983.25;;;-144.09;78.31
8890;BME280;4481;43.406;24.454;2023-02-26T02:49:59;75964.47;;;-144.09;77.05
8890;BME280;4481;43.406;24.454;2023-02-26T02:52:31;75949.84;;;-144.09;75.84
8890;BME280;4481;43.406;24.454;2023-02-26T02:55:04;75935.22;;;-144.09;74.37
8890;BME280;4481;43.406;24.454;2023-02-26T02:57:35;75931.03;;;-144.09;74.69
8890;BME280;4481;43.406;24.454;2023-02-26T03:00:07;75914.31;;;-144.09;72.81
8890;BME280;4481;43.406;24.454;2023-02-26T03:02:39;75903.88;;;-144.09;72.26
8890;BME280;4481;43.406;24.454;2023-02-26T03:05:08;75887.16;;;-144.09;72.27
8890;BME280;4481;43.406;24.454;2023-02-26T03:07:39;75872.53;;;-144.09;71.56
8890;BME280;4481;43.406;24.454;2023-02-26T03:10:07;75862.09;;;-144.09;71.20
8890;BME280;4481;43.406;24.454;2023-02-26T03:12:34;75864.19;;;-144.09;71.25
8890;BME280;4481;43.406;24.454;2023-02-26T03:15:01;75853.72;;;-144.09;70.63
8890;BME280;4481;43.406;24.454;2023-02-26T03:17:31;75839.13;;;-144.09;70.07
8890;BME280;4481;43.406;24.454;2023-02-26T03:20:10;75834.94;;;-144.09;69.54
8890;BME280;4481;43.406;24.454;2023-02-26T03:22:44;75824.50;;;-144.09;70.00
8890;BME280;4481;43.406;24.454;2023-02-26T03:25:17;75824.50;;;-144.09;69.79
8890;BME280;4481;43.406;24.454;2023-02-26T03:27:50;75855.81;;;-144.09;68.69
8890;BME280;4481;43.406;24.454;2023-02-26T03:30:20;75845.38;;;-144.09;68.03
8890;BME280;4481;43.406;24.454;2023-02-26T03:33:00;75834.94;;;-144.09;67.66
8890;BME280;4481;43.406;24.454;2023-02-26T03:35:34;75822.41;;;-144.09;68.40
8890;BME280;4481;43.406;24.454;2023-02-26T03:38:04;75814.03;;;-144.09;69.03
8890;BME280;4481;43.406;24.454;2023-02-26T03:40:35;75811.97;;;-144.09;68.39
8890;BME280;4481;43.406;24.454;2023-02-26T03:43:07;75805.69;;;-144.09;68.20
8890;BME280;4481;43.406;24.454;2023-02-26T03:45:37;75788.97;;;-144.09;67.83
8890;BME280;4481;43.406;24.454;2023-02-26T03:48:07;75791.06;;;-144.09;67.84
8890;BME280;4481;43.406;24.454;2023-02-26T03:50:39;75791.06;;;-144.09;68.27
8890;BME280;4481;43.406;24.454;2023-02-26T03:53:09;75786.88;;;-144.09;68.03
8890;BME280;4481;43.406;24.454;2023-02-26T03:55:40;75788.97;;;-144.09;67.58
8890;BME280;4481;43.406;24.454;2023-02-26T03:58:08;75791.06;;;-144.09;68.20
8890;BME280;4481;43.406;24.454;2023-02-26T04:00:36;75774.34;;;-144.09;67.59
8890;BME280;4481;43.406;24.454;2023-02-26T04:03:07;75776.44;;;-144.09;67.46
8890;BME280;4481;43.406;24.454;2023-02-26T04:05:38;75751.38;;;-144.09;66.24
8890;BME280;4481;43.406;24.454;2023-02-26T04:08:06;75724.22;;;-144.09;65.69
8890;BME280;4481;43.406;24.454;2023-02-26T04:10:36;75699.16;;;-144.09;64.55
8890;BME280;4481;43.406;24.454;2023-02-26T04:13:04;75669.91;;;-144.09;63.66
8890;BME280;4481;43.406;24.454;2023-02-26T04:15:30;75657.38;;;-144.09;63.64
8890;BME280;4481;43.406;24.454;2023-02-26T04:17:56;75646.91;;;-144.09;63.30
8890;BME280;4481;43.406;24.454;2023-02-26T04:20:22;75640.66;;;-144.09;63.28
8890;BME280;4481;43.406;24.454;2023-02-26T04:22:49;75640.66;;;-144.09;63.24
8890;BME280;4481;43.406;24.454;2023-02-26T04:25:16;75644.84;;;-144.09;63.28
8890;BME280;4481;43.406;24.454;2023-02-26T04:27:42;75644.84;;;-144.09;63.15
8890;BME280;4481;43.406;24.454;2023-02-26T04:30:09;75632.28;;;-144.09;62.73
8890;BME280;4481;43.406;24.454;2023-02-26T04:32:35;75640.66;;;-144.09;62.83
8890;BME280;4481;43.406;24.454;2023-02-26T04:35:02;75630.22;;;-144.09;62.82
8890;BME280;4481;43.406;24.454;2023-02-26T04:37:28;75632.28;;;-144.09;62.66
8890;BME280;4481;43.406;24.454;2023-02-26T04:39:55;75636.47;;;-144.09;62.29
8890;BME280;4481;43.406;24.454;2023-02-26T04:42:21;75630.22;;;-144.09;62.16
8890;BME280;4481;43.406;24.454;2023-02-26T04:44:47;75640.66;;;-144.09;62.20
8890;BME280;4481;43.406;24.454;2023-02-26T04:47:13;75636.47;;;-144.09;61.78
8890;BME280;4481;43.406;24.454;2023-02-26T04:49:39;75626.03;;;-144.09;62.05
8890;BME280;4481;43.406;24.454;2023-02-26T04:52:06;75636.47;;;-144.09;62.10
8890;BME280;4481;43.406;24.454;2023-02-26T04:54:32;75632.28;;;-144.09;62.36
8890;BME280;4481;43.406;24.454;2023-02-26T04:56:59;75632.28;;;-144.09;62.25
8890;BME280;4481;43.406;24.454;2023-02-26T04:59:25;75640.66;;;-144.09;62.95
8890;BME280;4481;43.406;24.454;2023-02-26T05:01:51;75628.13;;;-144.09;62.92
8890;BME280;4481;43.406;24.454;2023-02-26T05:04:17;75642.75;;;-144.09;62.96
8890;BME280;4481;43.406;24.454;2023-02-26T05:06:43;75649.00;;;-144.09;63.11
8890;BME280;4481;43.406;24.454;2023-02-26T05:09:09;75646.91;;;-144.09;63.49
8890;BME280;4481;43.406;24.454;2023-02-26T05:11:36;75653.19;;;-144.09;63.04
8890;BME280;4481;43.406;24.454;2023-02-26T05:14:02;75661.53;;;-144.09;63.12
8890;BME280;4481;43.406;24.454;2023-02-26T05:16:29;75674.06;;;-144.09;63.30
8890;BME280;4481;43.406;24.454;2023-02-26T05:18:55;75667.81;;;-144.09;62.82
8890;BME280;4481;43.406;24.454;2023-02-26T05:21:21;75678.25;;;-144.09;62.97
8890;BME280;4481;43.406;24.454;2023-02-26T05:23:47;75678.25;;;-144.09;63.14
8890;BME280;4481;43.406;24.454;2023-02-26T05:26:13;75686.59;;;-144.09;63.24
8890;BME280;4481;43.406;24.454;2023-02-26T05:28:39;75690.78;;;-144.09;63.50
8890;BME280;4481;43.406;24.454;2023-02-26T05:31:06;75703.31;;;-144.09;63.82
8890;BME280;4481;43.406;24.454;2023-02-26T05:33:32;75705.41;;;-144.09;64.14
8890;BME280;4481;43.406;24.454;2023-02-26T05:35:58;75715.84;;;-144.09;64.43
8890;BME280;4481;43.406;24.454;2023-02-26T05:38:25;75707.50;;;-144.09;64.44
8890;BME280;4481;43.406;24.454;2023-02-26T05:40:55;75703.31;;;-144.09;64.31
8890;BME280;4481;43.406;24.454;2023-02-26T05:43:21;75703.31;;;-144.09;64.09
8890;BME280;4481;43.406;24.454;2023-02-26T05:45:48;75694.97;;;-144.09;64.11
8890;BME280;4481;43.406;24.454;2023-02-26T05:48:15;75692.88;;;-144.09;64.00
8890;BME280;4481;43.406;24.454;2023-02-26T05:50:41;75682.44;;;-144.09;63.57
8890;BME280;4481;43.406;24.454;2023-02-26T05:53:07;75674.06;;;-144.09;63.41
8890;BME280;4481;43.406;24.454;2023-02-26T05:55:33;75672.00;;;-144.09;63.74
8890;BME280;4481;43.406;24.454;2023-02-26T05:58:01;75667.81;;;-144.09;63.39
8890;BME280;4481;43.406;24.454;2023-02-26T06:00:27;75659.44;;;-144.09;63.30
8890;BME280;4481;43.406;24.454;2023-02-26T06:02:53;75661.53;;;-144.09;62.40
8890;BME280;4481;43.406;24.454;2023-02-26T06:05:20;75642.75;;;-144.09;61.54
8890;BME280;4481;43.406;24.454;2023-02-26T06:07:46;75615.59;;;-144.09;60.82
8890;BME280;4481;43.406;24.454;2023-02-26T06:10:12;75603.06;;;-144.09;60.37
8890;BME280;4481;43.406;24.454;2023-02-26T06:12:38;75590.50;;;-144.09;59.55
8890;BME280;4481;43.406;24.454;2023-02-26T06:15:06;75584.25;;;-144.09;59.57
8890;BME280;4481;43.406;24.454;2023-02-26T06:17:32;75584.25;;;-144.09;59.43
8890;BME280;4481;43.406;24.454;2023-02-26T06:19:58;75586.34;;;-144.09;59.60
8890;BME280;4481;43.406;24.454;2023-02-26T06:22:25;75584.25;;;-144.09;59.61
8890;BME280;4481;43.406;24.454;2023-02-26T06:24:51;75582.16;;;-144.09;59.48
8890;BME280;4481;43.406;24.454;2023-02-26T06:27:19;75582.16;;;-144.09;59.41
8890;BME280;4481;43.406;24.454;2023-02-26T06:29:45;75571.72;;;-144.09;59.15
8890;BME280;4481;43.406;24.454;2023-02-26T06:32:11;75563.34;;;-144.09;59.27
8890;BME280;4481;43.406;24.454;2023-02-26T06:34:38;75552.91;;;-144.09;58.85
8890;BME280;4481;43.406;24.454;2023-02-26T06:37:04;75534.13;;;-144.09;58.43
8890;BME280;4481;43.406;24.454;2023-02-26T06:39:31;75519.50;;;-144.09;58.10
8890;BME280;4481;43.406;24.454;2023-02-26T06:41:57;75509.03;;;-144.09;58.14
8890;BME280;4481;43.406;24.454;2023-02-26T06:44:23;75500.69;;;-144.09;57.88
8890;BME280;4481;43.406;24.454;2023-02-26T06:46:50;75488.16;;;-144.09;57.45
8890;BME280;4481;43.406;24.454;2023-02-26T06:49:16;75469.34;;;-144.09;56.88
8890;BME280;4481;43.406;24.454;2023-02-26T06:51:42;75461.00;;;-144.09;56.53
8890;BME280;4481;43.406;24.454;2023-02-26T06:54:08;75454.75;;;-144.09;56.52
8890;BME280;4481;43.406;24.454;2023-02-26T06:56:35;75452.66;;;-144.09;55.88
8890;BME280;4481;43.406;24.454;2023-02-26T06:59:01;75448.47;;;-144.09;56.33
8890;BME280;4481;43.406;24.454;2023-02-26T07:01:27;75440.13;;;-144.09;55.71
8890;BME280;4481;43.406;24.454;2023-02-26T07:03:53;75448.47;;;-144.09;55.57
8890;BME280;4481;43.406;24.454;2023-02-26T07:06:19;75429.66;;;-144.09;55.08
8890;BME280;4481;43.406;24.454;2023-02-26T07:08:46;75421.31;;;-144.09;54.52
8890;BME280;4481;43.406;24.454;2023-02-26T07:11:12;75410.88;;;-144.09;53.86
8890;BME280;4481;43.406;24.454;2023-02-26T07:13:40;75404.59;;;-144.09;53.46
8890;BME280;4481;43.406;24.454;2023-02-26T07:16:06;75392.06;;;-144.09;53.19
8890;BME280;4481;43.406;24.454;2023-02-26T07:18:32;75381.63;;;-144.09;53.05
8890;BME280;4481;43.406;24.454;2023-02-26T07:20:58;75373.28;;;-144.09;52.52
8890;BME280;4481;43.406;24.454;2023-02-26T07:23:25;75364.91;;;-144.09;51.92
8890;BME280;4481;43.406;24.454;2023-02-26T07:25:51;75354.47;;;-144.09;51.13
8890;BME280;4481;43.406;24.454;2023-02-26T07:28:17;75341.94;;;-144.09;50.81
8890;BME280;4481;43.406;24.454;2023-02-26T07:30:45;75339.84;;;-144.09;50.75
8890;BME280;4481;43.406;24.454;2023-02-26T07:33:12;75325.22;;;-144.09;50.37
8890;BME280;4481;43.406;24.454;2023-02-26T07:35:38;75314.78;;;-144.09;50.24
8890;BME280;4481;43.406;24.454;2023-02-26T07:38:05;75312.69;;;-144.09;49.63
8890;BME280;4481;43.406;24.454;2023-02-26T07:40:31;75300.16;;;-144.09;49.56
8890;BME280;4481;43.406;24.454;2023-02-26T07:42:57;75287.63;;;-144.09;49.28
8890;BME280;4481;43.406;24.454;2023-02-26T07:45:23;75266.75;;;-144.09;49.03
8890;BME280;4481;43.406;24.454;2023-02-26T07:47:51;75262.56;;;-144.09;49.15
8890;BME280;4481;43.406;24.454;2023-02-26T07:50:18;75264.66;;;-144.09;48.96
8890;BME280;4481;43.406;24.454;2023-02-26T07:52:44;75250.03;;;-144.09;49.22
8890;BME280;4481;43.406;24.454;2023-02-26T07:55:11;75243.75;;;-144.09;49.08
8890;BME280;4481;43.406;24.454;2023-02-26T07:57:38;75237.50;;;-144.09;49.22
8890;BME280;4481;43.406;24.454;2023-02-26T08:00:05;75227.06;;;-144.09;48.08
8890;BME280;4481;43.406;24.454;2023-02-26T08:02:31;75220.78;;;-144.09;48.39
8890;BME280;4481;43.406;24.454;2023-02-26T08:04:58;75222.88;;;-144.09;48.07
8890;BME280;4481;43.406;24.454;2023-02-26T08:07:24;75231.22;;;-144.09;48.10
8890;BME280;4481;43.406;24.454;2023-02-26T08:09:51;75227.06;;;-144.09;48.18
8890;BME280;4481;43.406;24.454;2023-02-26T08:12:17;75216.63;;;-144.09;48.71
8890;BME280;4481;43.406;24.454;2023-02-26T08:14:43;75218.69;;;-144.09;48.59
8890;BME280;4481;43.406;24.454;2023-02-26T08:17:10;75212.44;;;-144.09;48.31
8890;BME280;4481;43.406;24.454;2023-02-26T08:19:37;75220.78;;;-144.09;48.56
8890;BME280;4481;43.406;24.454;2023-02-26T08:22:04;75210.34;;;-144.09;48.83
8890;BME280;4481;43.406;24.454;2023-02-26T08:24:30;75206.16;;;-144.09;48.35
8890;BME280;4481;43.406;24.454;2023-02-26T08:26:56;75210.34;;;-144.09;48.64
8890;BME280;4481;43.406;24.454;2023-02-26T08:29:22;75214.53;;;-144.09;48.81
8890;BME280;4481;43.406;24.454;2023-02-26T08:31:49;75206.16;;;-144.09;48.57
8890;BME280;4481;43.406;24.454;2023-02-26T08:34:15;75195.72;;;-144.09;48.16
8890;BME280;4481;43.406;24.454;2023-02-26T08:36:41;75168.56;;;-144.09;47.99
8890;BME280;4481;43.406;24.454;2023-02-26T08:39:08;75168.56;;;-144.09;48.63
8890;BME280;4481;43.406;24.454;2023-02-26T08:41:34;75141.41;;;-144.09;47.79
8890;BME280;4481;43.406;24.454;2023-02-26T08:44:01;75114.25;;;-144.09;47.16
8890;BME280;4481;43.406;24.454;2023-02-26T08:46:27;75087.13;;;-144.09;47.19
8890;BME280;4481;43.406;24.454;2023-02-26T08:48:53;75059.97;;;-144.09;46.34
8890;BME280;4481;43.406;24.454;2023-02-26T08:51:20;75043.25;;;-144.09;46.60
8890;BME280;4481;43.406;24.454;2023-02-26T08:53:47;75034.91;;;-144.09;45.73
8890;BME280;4481;43.406;24.454;2023-02-26T08:56:15;75026.53;;;-144.09;44.83
8890;BME280;4481;43.406;24.454;2023-02-26T08:58:42;75014.00;;;-144.09;45.13
8890;BME280;4481;43.406;24.454;2023-02-26T09:01:08;75020.28;;;-144.09;46.10
8890;BME280;4481;43.406;24.454;2023-02-26T09:03:35;74997.31;;;-144.09;44.84
8890;BME280;4481;43.406;24.454;2023-02-26T09:06:01;75007.75;;;-144.09;43.36
8890;BME280;4481;43.406;24.454;2023-02-26T09:08:29;74993.13;;;-144.09;44.67
8890;BME280;4481;43.406;24.454;2023-02-26T09:10:58;75005.66;;;-144.09;45.20
8890;BME280;4481;43.406;24.454;2023-02-26T09:13:25;75020.28;;;-144.09;44.78
8890;BME280;4481;43.406;24.454;2023-02-26T09:15:52;75039.06;;;-144.09;43.91
8890;BME280;4481;43.406;24.454;2023-02-26T09:18:18;75016.09;;;-144.09;44.28
8890;BME280;4481;43.406;24.454;2023-02-26T09:20:44;75016.09;;;-144.09;44.79
8890;BME280;4481;43.406;24.454;2023-02-26T09:23:10;75026.53;;;-144.09;45.09
8890;BME280;4481;43.406;24.454;2023-02-26T09:25:37;75034.91;;;-144.09;44.46
8890;BME280;4481;43.406;24.454;2023-02-26T09:28:04;75049.50;;;-144.09;44.95
8890;BME280;4481;43.406;24.454;2023-02-26T09:30:31;75041.16;;;-144.09;44.96
8890;BME280;4481;43.406;24.454;2023-02-26T09:32:57;75016.09;;;-144.09;45.31
8890;BME280;4481;43.406;24.454;2023-02-26T09:35:24;74995.22;;;-144.09;44.73
8890;BME280;4481;43.406;24.454;2023-02-26T09:37:50;74993.13;;;-144.09;44.46
8890;BME280;4481;43.406;24.454;2023-02-26T09:40:24;74993.13;;;-144.09;44.27
8890;BME280;4481;43.406;24.454;2023-02-26T09:43:06;74984.78;;;-144.09;44.33
8890;BME280;4481;43.406;24.454;2023-02-26T09:45:42;74980.59;;;-144.09;43.96
8890;BME280;4481;43.406;24.454;2023-02-26T09:48:12;74972.25;;;-144.09;44.10
8890;BME280;4481;43.406;24.454;2023-02-26T09:50:41;74974.31;;;-144.09;43.29
8890;BME280;4481;43.406;24.454;2023-02-26T09:53:13;74953.44;;;-144.09;42.76
8890;BME280;4481;43.406;24.454;2023-02-26T09:55:43;74924.19;;;-144.09;42.68
8890;BME280;4481;43.406;24.454;2023-02-26T09:58:14;74905.41;;;-144.09;41.74
8890;BME280;4481;43.406;24.454;2023-02-26T10:00:48;74882.44;;;-144.09;42.66
8890;BME280;4481;43.406;24.454;2023-02-26T10:03:24;74884.50;;;-144.09;42.41
8890;BME280;4481;43.406;24.454;2023-02-26T10:06:15;74849.00;;;-144.09;42.00
8890;BME280;4481;43.406;24.454;2023-02-26T10:08:50;74836.47;;;-144.09;42.12
8890;BME280;4481;43.406;24.454;2023-02-26T10:11:25;74857.38;;;-144.09;40.52
8890;BME280;4481;43.406;24.454;2023-02-26T10:13:57;74880.34;;;-144.09;41.23
8890;BME280;4481;43.406;24.454;2023-02-26T10:16:29;74853.19;;;-144.09;41.38
8890;BME280;4481;43.406;24.454;2023-02-26T10:19:01;74846.91;;;-144.09;41.33
8890;BME280;4481;43.406;24.454;2023-02-26T10:21:32;74836.47;;;-144.09;41.42
8890;BME280;4481;43.406;24.454;2023-02-26T10:24:06;74826.03;;;-144.09;40.61
8890;BME280;4481;43.406;24.454;2023-02-26T10:26:38;74819.78;;;-144.09;39.35
8890;BME280;4481;43.406;24.454;2023-02-26T10:29:14;74819.78;;;-144.09;39.64
8890;BME280;4481;43.406;24.454;2023-02-26T10:31:54;74844.84;;;-144.09;39.34
8890;BME280;4481;43.406;24.454;2023-02-26T10:34:28;74844.84;;;-144.09;38.87
8890;BME280;4481;43.406;24.454;2023-02-26T10:37:02;74828.13;;;-144.09;38.58
8890;BME280;4481;43.406;24.454;2023-02-26T10:39:34;74821.88;;;-144.09;37.98
8890;BME280;4481;43.406;24.454;2023-02-26T10:42:10;74790.53;;;-144.09;38.63
8890;BME280;4481;43.406;24.454;2023-02-26T10:44:43;74775.91;;;-144.09;38.54
8890;BME280;4481;43.406;24.454;2023-02-26T10:47:19;74815.59;;;-144.09;38.59
8890;BME280;4481;43.406;24.454;2023-02-26T10:49:53;74803.06;;;-144.09;39.34
8890;BME280;4481;43.406;24.454;2023-02-26T10:52:23;74784.28;;;-144.09;39.24
8890;BME280;4481;43.406;24.454;2023-02-26T10:58:04;74786.34;;;-144.09;38.00
8890;BME280;4481;43.406;24.454;2023-02-26T11:00:32;74800.97;;;-144.09;38.07
8890;BME280;4481;43.406;24.454;2023-02-26T11:03:03;74807.25;;;-144.09;38.34
8890;BME280;4481;43.406;24.454;2023-02-26T11:05:31;74828.13;;;-144.09;39.20
8890;BME280;4481;43.406;24.454;2023-02-26T11:08:01;74830.22;;;-144.09;39.42
8890;BME280;4481;43.406;24.454;2023-02-26T11:10:40;74855.28;;;-144.09;38.90
8890;BME280;4481;43.406;24.454;2023-02-26T11:13:07;74842.75;;;-144.09;39.16
8890;BME280;4481;43.406;24.454;2023-02-26T11:15:34;74842.75;;;-144.09;38.80
8890;BME280;4481;43.406;24.454;2023-02-26T11:18:01;74821.88;;;-144.09;38.92
8890;BME280;4481;43.406;24.454;2023-02-26T11:20:33;74803.06;;;-144.09;37.08
8890;BME280;4481;43.406;24.454;2023-02-26T11:23:01;74786.34;;;-144.09;36.94
8890;BME280;4481;43.406;24.454;2023-02-26T11:25:30;74771.75;;;-144.09;37.32
8890;BME280;4481;43.406;24.454;2023-02-26T11:28:00;74755.03;;;-144.09;35.80
8890;BME280;4481;43.406;24.454;2023-02-26T11:30:30;74757.13;;;-144.09;34.76
8890;BME280;4481;43.406;24.454;2023-02-26T11:32:58;74738.31;;;-144.09;34.68
8890;BME280;4481;43.406;24.454;2023-02-26T11:35:29;74740.41;;;-144.09;34.61
8890;BME280;4481;43.406;24.454;2023-02-26T11:37:58;74715.34;;;-144.09;34.76
8890;BME280;4481;43.406;24.454;2023-02-26T11:40:37;74686.09;;;-144.09;34.65
8890;BME280;4481;43.406;24.454;2023-02-26T11:43:07;74684.03;;;-144.09;34.72
8890;BME280;4481;43.406;24.454;2023-02-26T11:45:39;74650.59;;;-144.09;33.63
8890;BME280;4481;43.406;24.454;2023-02-26T11:48:12;74629.72;;;-144.09;34.59
8890;BME280;4481;43.406;24.454;2023-02-26T11:50:44;74629.72;;;-144.09;34.02
8890;BME280;4481;43.406;24.454;2023-02-26T11:53:17;74652.69;;;-144.09;33.55
8890;BME280;4481;43.406;24.454;2023-02-26T11:55:45;74627.63;;;-144.09;35.03
8890;BME280;4481;43.406;24.454;2023-02-26T11:58:18;74615.09;;;-144.09;32.08
8890;BME280;4481;43.406;24.454;2023-02-26T12:00:45;74604.66;;;-144.09;30.10
8890;BME280;4481;43.406;24.454;2023-02-26T12:03:15;74600.50;;;-144.09;30.21
8890;BME280;4481;43.406;24.454;2023-02-26T12:05:43;74613.00;;;-144.09;33.62
8890;BME280;4481;43.406;24.454;2023-02-26T12:08:17;74598.41;;;-144.09;31.69
8890;BME280;4481;43.406;24.454;2023-02-26T12:10:51;74629.72;;;-144.09;34.39
8890;BME280;4481;43.406;24.454;2023-02-26T12:13:26;74667.31;;;-144.09;36.21
8890;BME280;4481;43.406;24.454;2023-02-26T12:16:01;74684.03;;;-144.09;37.26
8890;BME280;4481;43.406;24.454;2023-02-26T12:18:45;74694.47;;;-144.09;38.11
8890;BME280;4481;43.406;24.454;2023-02-26T12:21:23;74675.66;;;-144.09;38.52
8890;BME280;4481;43.406;24.454;2023-02-26T12:24:11;74713.25;;;-144.09;38.41
8890;BME280;4481;43.406;24.454;2023-02-26T12:26:49;74700.72;;;-144.09;38.71
8890;BME280;4481;43.406;24.454;2023-02-26T12:29:36;74732.06;;;-144.09;39.40
8890;BME280;4481;43.406;24.454;2023-02-26T12:32:33;74750.84;;;-144.09;40.06
8890;BME280;4481;43.406;24.454;2023-02-26T12:35:33;74759.22;;;-144.09;40.19
8890;BME280;4481;43.406;24.454;2023-02-26T12:38:13;74761.28;;;-144.09;40.58
8890;BME280;4481;43.406;24.454;2023-02-26T12:40:49;74736.22;;;-144.09;40.35
8890;BME280;4481;43.406;24.454;2023-02-26T12:43:25;74759.22;;;-144.09;40.39
8890;BME280;4481;43.406;24.454;2023-02-26T12:46:01;74763.38;;;-144.09;41.11
8890;BME280;4481;43.406;24.454;2023-02-26T12:51:48;74767.56;;;-144.09;41.10
8890;BME280;4481;43.406;24.454;2023-02-26T12:54:33;74767.56;;;-144.09;40.44
8890;BME280;4481;43.406;24.454;2023-02-26T12:57:14;74771.75;;;-144.09;40.42
8890;BME280;4481;43.406;24.454;2023-02-26T12:59:57;74771.75;;;-144.09;40.50
8890;BME280;4481;43.406;24.454;2023-02-26T13:03:02;74775.91;;;-144.09;40.33
8890;BME280;4481;43.406;24.454;2023-02-26T13:05:46;74757.13;;;-144.09;40.23
8890;BME280;4481;43.406;24.454;2023-02-26T13:08:22;74742.50;;;-144.09;39.61
8890;BME280;4481;43.406;24.454;2023-02-26T13:11:08;74742.50;;;-144.09;38.14
8890;BME280;4481;43.406;24.454;2023-02-26T13:13:49;74746.69;;;-144.09;38.30